sensor_id;sensor_type;location;lat;lon;timestamp;pressure;altitude;pressure_sealevel;temperature;humidity
14253;BME280;7210;51.502;10.722;2022-10-16T00:01:43;99185.75;;;13.77;100.00
14253;BME280;7210;51.502;10.722;2022-10-16T00:04:10;99189.97;;;13.73;100.00
14253;BME280;7210;51.502;10.722;2022-10-16T00:06:39;99183.31;;;13.70;100.00
14253;BME280;7210;51.502;10.722;2022-10-16T00:09:07;99175.03;;;13.67;100.00
14253;BME280;7210;51.502;10.722;2022-10-16T00:11:37;99191.75;;;13.62;100.00
14253;BME280;7210;51.502;10.722;2022-10-16T00:14:09;99192.03;;;13.61;100.00
14253;BME280;7210;51.502;10.722;2022-10-16T00:16:37;99198.91;;;13.57;100.00
14253;BME280;7210;51.502;10.722;2022-10-16T00:19:05;99206.28;;;13.50;100.00
14253;BME280;7210;51.502;10.722;2022-10-16T00:21:33;99209.22;;;13.48;100.00
14253;BME280;7210;51.502;10.722;2022-10-16T00:24:05;99200.97;;;13.50;100.00
14253;BME280;7210;51.502;10.722;2022-10-16T00:26:36;99203.66;;;13.55;100.00
14253;BME280;7210;51.502;10.722;2022-10-16T00:29:04;99214.59;;;13.58;100.00
14253;BME280;7210;51.502;10.722;2022-10-16T00:31:33;99217.56;;;13.67;100.00
14253;BME280;7210;51.502;10.722;2022-10-16T00:34:00;99217.84;;;13.70;100.00
14253;BME280;7210;51.502;10.722;2022-10-16T00:36:28;99223.44;;;13.74;100.00
14253;BME280;7210;51.502;10.722;2022-10-16T00:38:57;99225.09;;;13.80;100.00
14253;BME280;7210;51.502;10.722;2022-10-16T00:41:29;99229.91;;;13.88;100.00
14253;BME280;7210;51.502;10.722;2022-10-16T00:43:58;99228.63;;;13.90;100.00
14253;BME280;7210;51.502;10.722;2022-10-16T00:46:31;99233.69;;;13.92;100.00
14253;BME280;7210;51.502;10.722;2022-10-16T00:49:06;99236.34;;;13.92;100.00
14253;BME280;7210;51.502;10.722;2022-10-16T00:51:37;99238.72;;;13.93;100.00
14253;BME280;7210;51.502;10.722;2022-10-16T00:54:11;99241.13;;;13.95;100.00
14253;BME280;7210;51.502;10.722;2022-10-16T00:56:47;99237.94;;;13.93;100.00
14253;BME280;7210;51.502;10.722;2022-10-16T00:59:18;99228.13;;;13.98;100.00
14253;BME280;7210;51.502;10.722;2022-10-16T01:01:46;99230.25;;;14.01;100.00
14253;BME280;7210;51.502;10.722;2022-10-16T01:04:14;99234.28;;;14.04;100.00
14253;BME280;7210;51.502;10.722;2022-10-16T01:06:51;99226.28;;;14.04;100.00
14253;BME280;7210;51.502;10.722;2022-10-16T01:09:28;99228.94;;;14.04;100.00
14253;BME280;7210;51.502;10.722;2022-10-16T01:12:09;99220.44;;;14.02;100.00
14253;BME280;7210;51.502;10.722;2022-10-16T01:14:47;99230.53;;;14.05;100.00
14253;BME280;7210;51.502;10.722;2022-10-16T01:17:21;99222.31;;;14.06;100.00
14253;BME280;7210;51.502;10.722;2022-10-16T01:20:07;99219.91;;;14.05;100.00
14253;BME280;7210;51.502;10.722;2022-10-16T01:22:48;99218.59;;;14.07;100.00
14253;BME280;7210;51.502;10.722;2022-10-16T01:25:30;99235.88;;;14.05;100.00
14253;BME280;7210;51.502;10.722;2022-10-16T01:28:07;99229.75;;;14.04;100.00
14253;BME280;7210;51.502;10.722;2022-10-16T01:30:40;99237.47;;;14.06;100.00
14253;BME280;7210;51.502;10.722;2022-10-16T01:33:16;99247.06;;;14.07;100.00
14253;BME280;7210;51.502;10.722;2022-10-16T01:35:50;99238.03;;;14.08;100.00
14253;BME280;7210;51.502;10.722;2022-10-16T01:38:25;99233.78;;;14.12;100.00
14253;BME280;7210;51.502;10.722;2022-10-16T01:41:00;99235.66;;;14.16;100.00
14253;BME280;7210;51.502;10.722;2022-10-16T01:43:38;99240.22;;;14.21;100.00
14253;BME280;7210;51.502;10.722;2022-10-16T01:46:09;99246.63;;;14.20;100.00
14253;BME280;7210;51.502;10.722;2022-10-16T01:48:37;99250.38;;;14.24;100.00
14253;BME280;7210;51.502;10.722;2022-10-16T01:51:09;99256.75;;;14.28;100.00
14253;BME280;7210;51.502;10.722;2022-10-16T01:53:39;99251.72;;;14.31;100.00
14253;BME280;7210;51.502;10.722;2022-10-16T01:56:12;99253.09;;;14.39;100.00
14253;BME280;7210;51.502;10.722;2022-10-16T01:58:47;99244.63;;;14.47;100.00
14253;BME280;7210;51.502;10.722;2022-10-16T02:01:21;99246.22;;;14.53;100.00
14253;BME280;7210;51.502;10.722;2022-10-16T02:03:54;99240.16;;;14.57;100.00
14253;BME280;7210;51.502;10.722;2022-10-16T02:06:24;99236.72;;;14.62;100.00
14253;BME280;7210;51.502;10.722;2022-10-16T02:08:56;99249.47;;;14.65;100.00
14253;BME280;7210;51.502;10.722;2022-10-16T02:11:24;99252.94;;;14.65;100.00
14253;BME280;7210;51.502;10.722;2022-10-16T02:13:59;99249.50;;;14.70;100.00
14253;BME280;7210;51.502;10.722;2022-10-16T02:16:35;99248.19;;;14.77;100.00
14253;BME280;7210;51.502;10.722;2022-10-16T02:19:04;99250.06;;;14.77;100.00
14253;BME280;7210;51.502;10.722;2022-10-16T02:21:39;99269.22;;;14.79;100.00
14253;BME280;7210;51.502;10.722;2022-10-16T02:24:17;99272.41;;;14.81;100.00
14253;BME280;7210;51.502;10.722;2022-10-16T02:26:52;99260.44;;;14.83;100.00
14253;BME280;7210;51.502;10.722;2022-10-16T02:29:26;99269.22;;;14.84;100.00
14253;BME280;7210;51.502;10.722;2022-10-16T02:31:58;99267.66;;;14.88;100.00
14253;BME280;7210;51.502;10.722;2022-10-16T02:34:30;99274.31;;;14.95;100.00
14253;BME280;7210;51.502;10.722;2022-10-16T02:37:04;99262.88;;;14.95;100.00
14253;BME280;7210;51.502;10.722;2022-10-16T02:39:33;99268.22;;;14.95;100.00
14253;BME280;7210;51.502;10.722;2022-10-16T02:42:01;99268.47;;;14.93;100.00
14253;BME280;7210;51.502;10.722;2022-10-16T02:44:30;99263.41;;;14.92;100.00
14253;BME280;7210;51.502;10.722;2022-10-16T02:46:57;99263.41;;;14.92;100.00
14253;BME280;7210;51.502;10.722;2022-10-16T02:49:25;99265.50;;;14.90;100.00
14253;BME280;7210;51.502;10.722;2022-10-16T02:51:52;99271.91;;;14.89;100.00
14253;BME280;7210;51.502;10.722;2022-10-16T02:54:20;99270.06;;;14.89;100.00
14253;BME280;7210;51.502;10.722;2022-10-16T02:56:47;99262.31;;;14.88;100.00
14253;BME280;7210;51.502;10.722;2022-10-16T02:59:14;99265.50;;;14.90;100.00
14253;BME280;7210;51.502;10.722;2022-10-16T03:01:43;99266.59;;;14.89;100.00
14253;BME280;7210;51.502;10.722;2022-10-16T03:04:10;99266.06;;;14.87;100.00
14253;BME280;7210;51.502;10.722;2022-10-16T03:06:38;99258.31;;;14.85;100.00
14253;BME280;7210;51.502;10.722;2022-10-16T03:09:05;99261.00;;;14.80;100.00
14253;BME280;7210;51.502;10.722;2022-10-16T03:11:32;99264.41;;;14.76;100.00
14253;BME280;7210;51.502;10.722;2022-10-16T03:14:00;99263.88;;;14.69;100.00
14253;BME280;7210;51.502;10.722;2022-10-16T03:16:27;99270.22;;;14.63;100.00
14253;BME280;7210;51.502;10.722;2022-10-16T03:18:55;99274.19;;;14.55;100.00
14253;BME280;7210;51.502;10.722;2022-10-16T03:21:23;99278.94;;;14.48;100.00
14253;BME280;7210;51.502;10.722;2022-10-16T03:23:50;99279.72;;;14.44;100.00
14253;BME280;7210;51.502;10.722;2022-10-16T03:26:17;99271.44;;;14.40;100.00
14253;BME280;7210;51.502;10.722;2022-10-16T03:28:50;99278.09;;;14.38;100.00
14253;BME280;7210;51.502;10.722;2022-10-16T03:31:18;99278.06;;;14.33;100.00
14253;BME280;7210;51.502;10.722;2022-10-16T03:33:45;99271.94;;;14.27;100.00
14253;BME280;7210;51.502;10.722;2022-10-16T03:36:13;99264.97;;;14.21;100.00
14253;BME280;7210;51.502;10.722;2022-10-16T03:38:41;99275.25;;;14.13;100.00
14253;BME280;7210;51.502;10.722;2022-10-16T03:41:08;99280.81;;;14.06;100.00
14253;BME280;7210;51.502;10.722;2022-10-16T03:43:35;99273.59;;;14.02;100.00
14253;BME280;7210;51.502;10.722;2022-10-16T03:46:03;99286.84;;;13.97;100.00
14253;BME280;7210;51.502;10.722;2022-10-16T03:48:30;99290.03;;;13.94;100.00
14253;BME280;7210;51.502;10.722;2022-10-16T03:50:58;99290.28;;;13.92;100.00
14253;BME280;7210;51.502;10.722;2022-10-16T03:53:27;99284.38;;;13.85;100.00
14253;BME280;7210;51.502;10.722;2022-10-16T03:55:54;99289.50;;;13.92;100.00
14253;BME280;7210;51.502;10.722;2022-10-16T03:58:21;99287.91;;;13.91;100.00
14253;BME280;7210;51.502;10.722;2022-10-16T04:00:48;99303.03;;;13.90;100.00
14253;BME280;7210;51.502;10.722;2022-10-16T04:03:16;99308.06;;;13.87;100.00
14253;BME280;7210;51.502;10.722;2022-10-16T04:05:44;99300.59;;;13.84;100.00
14253;BME280;7210;51.502;10.722;2022-10-16T04:08:12;99304.81;;;13.80;100.00
14253;BME280;7210;51.502;10.722;2022-10-16T04:10:42;99313.28;;;13.77;100.00
14253;BME280;7210;51.502;10.722;2022-10-16T04:13:10;99325.00;;;13.76;100.00
14253;BME280;7210;51.502;10.722;2022-10-16T04:15:37;99323.13;;;13.76;100.00
14253;BME280;7210;51.502;10.722;2022-10-16T04:18:05;99331.34;;;13.75;100.00
14253;BME280;7210;51.502;10.722;2022-10-16T04:20:33;99330.78;;;13.73;100.00
14253;BME280;7210;51.502;10.722;2022-10-16T04:23:01;99330.75;;;13.68;100.00
14253;BME280;7210;51.502;10.722;2022-10-16T04:25:28;99333.13;;;13.64;100.00
14253;BME280;7210;51.502;10.722;2022-10-16T04:27:57;99333.31;;;13.58;100.00
14253;BME280;7210;51.502;10.722;2022-10-16T04:30:25;99334.06;;;13.53;100.00
14253;BME280;7210;51.502;10.722;2022-10-16T04:32:53;99338.78;;;13.46;100.00
14253;BME280;7210;51.502;10.722;2022-10-16T04:35:21;99312.28;;;13.25;100.00
14253;BME280;7210;51.502;10.722;2022-10-16T04:37:48;99335.97;;;13.31;100.00
14253;BME280;7210;51.502;10.722;2022-10-16T04:40:16;99336.19;;;13.25;100.00
14253;BME280;7210;51.502;10.722;2022-10-16T04:42:43;99328.75;;;13.27;100.00
14253;BME280;7210;51.502;10.722;2022-10-16T04:45:12;99338.28;;;13.23;100.00
14253;BME280;7210;51.502;10.722;2022-10-16T04:47:39;99338.97;;;13.13;100.00
14253;BME280;7210;51.502;10.722;2022-10-16T04:50:07;99340.34;;;13.16;100.00
14253;BME280;7210;51.502;10.722;2022-10-16T04:52:35;99332.06;;;13.12;100.00
14253;BME280;7210;51.502;10.722;2022-10-16T04:55:03;99340.28;;;13.11;100.00
14253;BME280;7210;51.502;10.722;2022-10-16T04:57:31;99342.31;;;13.04;100.00
14253;BME280;7210;51.502;10.722;2022-10-16T04:59:59;99353.00;;;13.09;100.00
14253;BME280;7210;51.502;10.722;2022-10-16T05:02:27;99348.69;;;13.03;100.00
14253;BME280;7210;51.502;10.722;2022-10-16T05:04:55;99357.63;;;12.97;100.00
14253;BME280;7210;51.502;10.722;2022-10-16T05:07:22;99354.63;;;12.93;100.00
14253;BME280;7210;51.502;10.722;2022-10-16T05:09:49;99356.72;;;12.91;100.00
14253;BME280;7210;51.502;10.722;2022-10-16T05:12:17;99359.94;;;12.93;100.00
14253;BME280;7210;51.502;10.722;2022-10-16T05:14:44;99365.66;;;13.02;100.00
14253;BME280;7210;51.502;10.722;2022-10-16T05:17:12;99357.06;;;13.16;100.00
14253;BME280;7210;51.502;10.722;2022-10-16T05:19:40;99366.19;;;13.25;100.00
14253;BME280;7210;51.502;10.722;2022-10-16T05:22:08;99378.16;;;13.28;100.00
14253;BME280;7210;51.502;10.722;2022-10-16T05:24:38;99370.84;;;13.40;100.00
14253;BME280;7210;51.502;10.722;2022-10-16T05:27:06;99368.00;;;13.46;100.00
14253;BME280;7210;51.502;10.722;2022-10-16T05:29:33;99371.47;;;13.47;100.00
14253;BME280;7210;51.502;10.722;2022-10-16T05:32:01;99365.66;;;13.50;100.00
14253;BME280;7210;51.502;10.722;2022-10-16T05:34:28;99365.69;;;13.55;100.00
14253;BME280;7210;51.502;10.722;2022-10-16T05:36:57;99364.66;;;13.56;100.00
14253;BME280;7210;51.502;10.722;2022-10-16T05:39:24;99364.69;;;13.61;100.00
14253;BME280;7210;51.502;10.722;2022-10-16T05:41:52;99362.34;;;13.64;100.00
14253;BME280;7210;51.502;10.722;2022-10-16T05:44:19;99365.31;;;13.68;100.00
14253;BME280;7210;51.502;10.722;2022-10-16T05:46:46;99362.19;;;13.76;100.00
14253;BME280;7210;51.502;10.722;2022-10-16T05:49:14;99353.09;;;13.72;100.00
14253;BME280;7210;51.502;10.722;2022-10-16T05:51:44;99359.06;;;13.84;100.00
14253;BME280;7210;51.502;10.722;2022-10-16T05:54:13;99351.09;;;13.84;100.00
14253;BME280;7210;51.502;10.722;2022-10-16T05:56:41;99361.44;;;13.80;100.00
14253;BME280;7210;51.502;10.722;2022-10-16T05:59:08;99351.56;;;13.76;100.00
14253;BME280;7210;51.502;10.722;2022-10-16T06:01:38;99348.09;;;13.75;100.00
14253;BME280;7210;51.502;10.722;2022-10-16T06:04:06;99344.06;;;13.73;100.00
14253;BME280;7210;51.502;10.722;2022-10-16T06:06:33;99335.84;;;13.74;100.00
14253;BME280;7210;51.502;10.722;2022-10-16T06:09:03;99334.56;;;13.77;100.00
14253;BME280;7210;51.502;10.722;2022-10-16T06:11:33;99356.59;;;13.77;100.00
14253;BME280;7210;51.502;10.722;2022-10-16T06:14:02;99372.81;;;13.76;100.00
14253;BME280;7210;51.502;10.722;2022-10-16T06:16:33;99389.00;;;13.74;100.00
14253;BME280;7210;51.502;10.722;2022-10-16T06:19:02;99391.91;;;13.73;100.00
14253;BME280;7210;51.502;10.722;2022-10-16T06:21:32;99391.13;;;13.72;100.00
14253;BME280;7210;51.502;10.722;2022-10-16T06:23:59;99392.16;;;13.71;100.00
14253;BME280;7210;51.502;10.722;2022-10-16T06:26:29;99403.03;;;13.70;100.00
14253;BME280;7210;51.502;10.722;2022-10-16T06:28:59;99414.16;;;13.67;100.00
14253;BME280;7210;51.502;10.722;2022-10-16T06:31:28;99417.38;;;13.69;100.00
14253;BME280;7210;51.502;10.722;2022-10-16T06:33:57;99405.63;;;13.65;100.00
14253;BME280;7210;51.502;10.722;2022-10-16T06:36:25;99416.88;;;13.72;100.00
14253;BME280;7210;51.502;10.722;2022-10-16T06:38:54;99423.03;;;13.77;100.00
14253;BME280;7210;51.502;10.722;2022-10-16T06:41:23;99434.03;;;13.86;100.00
14253;BME280;7210;51.502;10.722;2022-10-16T06:43:51;99446.84;;;13.94;100.00
14253;BME280;7210;51.502;10.722;2022-10-16T06:46:23;99452.50;;;14.02;100.00
14253;BME280;7210;51.502;10.722;2022-10-16T06:48:56;99456.03;;;14.08;100.00
14253;BME280;7210;51.502;10.722;2022-10-16T06:51:25;99459.28;;;14.15;100.00
14253;BME280;7210;51.502;10.722;2022-10-16T06:53:54;99463.06;;;14.19;100.00
14253;BME280;7210;51.502;10.722;2022-10-16T06:56:25;99461.53;;;14.23;100.00
14253;BME280;7210;51.502;10.722;2022-10-16T06:58:54;99467.63;;;14.23;100.00
14253;BME280;7210;51.502;10.722;2022-10-16T07:01:24;99466.91;;;14.33;100.00
14253;BME280;7210;51.502;10.722;2022-10-16T07:03:52;99475.50;;;14.45;100.00
14253;BME280;7210;51.502;10.722;2022-10-16T07:06:22;99467.56;;;14.50;100.00
14253;BME280;7210;51.502;10.722;2022-10-16T07:08:50;99482.41;;;14.72;100.00
14253;BME280;7210;51.502;10.722;2022-10-16T07:11:20;99493.38;;;14.86;100.00
14253;BME280;7210;51.502;10.722;2022-10-16T07:13:48;99491.31;;;14.98;100.00
14253;BME280;7210;51.502;10.722;2022-10-16T07:16:19;99481.28;;;15.14;100.00
14253;BME280;7210;51.502;10.722;2022-10-16T07:18:48;99478.47;;;15.31;100.00
14253;BME280;7210;51.502;10.722;2022-10-16T07:21:19;99492.66;;;15.41;100.00
14253;BME280;7210;51.502;10.722;2022-10-16T07:23:50;99501.78;;;15.55;100.00
14253;BME280;7210;51.502;10.722;2022-10-16T07:26:18;99506.31;;;15.65;100.00
14253;BME280;7210;51.502;10.722;2022-10-16T07:28:45;99503.72;;;15.75;100.00
14253;BME280;7210;51.502;10.722;2022-10-16T07:31:17;99523.47;;;15.84;100.00
14253;BME280;7210;51.502;10.722;2022-10-16T07:33:50;99526.94;;;15.84;100.00
14253;BME280;7210;51.502;10.722;2022-10-16T07:36:20;99513.63;;;15.94;100.00
14253;BME280;7210;51.502;10.722;2022-10-16T07:38:48;99509.63;;;16.02;100.00
14253;BME280;7210;51.502;10.722;2022-10-16T07:41:18;99492.03;;;16.11;100.00
14253;BME280;7210;51.502;10.722;2022-10-16T07:43:46;99504.06;;;16.18;100.00
14253;BME280;7210;51.502;10.722;2022-10-16T07:46:14;99508.34;;;16.24;100.00
14253;BME280;7210;51.502;10.722;2022-10-16T07:48:42;99507.84;;;16.32;100.00
14253;BME280;7210;51.502;10.722;2022-10-16T07:51:17;99505.44;;;16.36;100.00
14253;BME280;7210;51.502;10.722;2022-10-16T07:53:44;99524.41;;;16.39;100.00
14253;BME280;7210;51.502;10.722;2022-10-16T07:56:13;99501.47;;;16.43;100.00
14253;BME280;7210;51.502;10.722;2022-10-16T07:58:40;99508.94;;;16.51;100.00
14253;BME280;7210;51.502;10.722;2022-10-16T08:01:11;99511.06;;;16.49;100.00
14253;BME280;7210;51.502;10.722;2022-10-16T08:03:41;99522.81;;;16.53;100.00
14253;BME280;7210;51.502;10.722;2022-10-16T08:06:09;99524.94;;;16.61;100.00
14253;BME280;7210;51.502;10.722;2022-10-16T08:08:37;99520.16;;;16.63;100.00
14253;BME280;7210;51.502;10.722;2022-10-16T08:11:05;99526.03;;;16.65;100.00
14253;BME280;7210;51.502;10.722;2022-10-16T08:13:32;99527.06;;;16.69;100.00
14253;BME280;7210;51.502;10.722;2022-10-16T08:16:00;99529.75;;;16.64;100.00
14253;BME280;7210;51.502;10.722;2022-10-16T08:18:29;99522.81;;;16.68;100.00
14253;BME280;7210;51.502;10.722;2022-10-16T08:20:57;99522.28;;;16.66;100.00
14253;BME280;7210;51.502;10.722;2022-10-16T08:23:26;99515.88;;;16.62;100.00
14253;BME280;7210;51.502;10.722;2022-10-16T08:26:01;99526.56;;;16.72;100.00
14253;BME280;7210;51.502;10.722;2022-10-16T08:28:28;99547.09;;;16.72;98.84
14253;BME280;7210;51.502;10.722;2022-10-16T08:30:56;99542.06;;;16.70;98.33
14253;BME280;7210;51.502;10.722;2022-10-16T08:33:23;99541.78;;;16.82;97.56
14253;BME280;7210;51.502;10.722;2022-10-16T08:35:52;99555.38;;;16.90;97.07
14253;BME280;7210;51.502;10.722;2022-10-16T08:38:20;99557.53;;;16.93;96.43
14253;BME280;7210;51.502;10.722;2022-10-16T08:40:48;99558.03;;;17.00;95.39
14253;BME280;7210;51.502;10.722;2022-10-16T08:43:41;99551.63;;;17.11;94.44
14253;BME280;7210;51.502;10.722;2022-10-16T08:46:26;99555.88;;;17.27;93.73
14253;BME280;7210;51.502;10.722;2022-10-16T08:48:59;99563.06;;;17.42;92.21
14253;BME280;7210;51.502;10.722;2022-10-16T08:51:31;99562.25;;;17.51;91.38
14253;BME280;7210;51.502;10.722;2022-10-16T08:54:03;99567.63;;;17.41;90.62
14253;BME280;7210;51.502;10.722;2022-10-16T08:56:31;99568.41;;;17.32;90.47
14253;BME280;7210;51.502;10.722;2022-10-16T08:59:00;99577.78;;;17.34;89.95
14253;BME280;7210;51.502;10.722;2022-10-16T09:01:42;99587.94;;;17.37;90.17
14253;BME280;7210;51.502;10.722;2022-10-16T09:04:54;99568.69;;;17.45;89.71
14253;BME280;7210;51.502;10.722;2022-10-16T09:07:32;99575.09;;;17.49;88.69
14253;BME280;7210;51.502;10.722;2022-10-16T09:10:19;99584.72;;;17.55;88.24
14253;BME280;7210;51.502;10.722;2022-10-16T09:13:01;99595.13;;;17.57;88.14
14253;BME280;7210;51.502;10.722;2022-10-16T09:15:38;99601.81;;;17.59;87.11
14253;BME280;7210;51.502;10.722;2022-10-16T09:18:15;99606.88;;;17.61;86.67
14253;BME280;7210;51.502;10.722;2022-10-16T09:20:51;99613.56;;;17.63;86.24
14253;BME280;7210;51.502;10.722;2022-10-16T09:23:27;99615.16;;;17.54;86.10
14253;BME280;7210;51.502;10.722;2022-10-16T09:25:56;99603.97;;;17.57;86.06
14253;BME280;7210;51.502;10.722;2022-10-16T09:28:25;99616.81;;;17.55;86.12
14253;BME280;7210;51.502;10.722;2022-10-16T09:30:58;99603.13;;;17.57;86.29
14253;BME280;7210;51.502;10.722;2022-10-16T09:33:32;99595.38;;;17.65;85.39
14253;BME280;7210;51.502;10.722;2022-10-16T09:36:04;99596.66;;;17.78;84.92
14253;BME280;7210;51.502;10.722;2022-10-16T09:38:34;99594.75;;;17.88;84.61
14253;BME280;7210;51.502;10.722;2022-10-16T09:41:15;99592.59;;;17.90;84.06
14253;BME280;7210;51.502;10.722;2022-10-16T09:43:50;99602.22;;;17.96;83.51
14253;BME280;7210;51.502;10.722;2022-10-16T09:46:27;99600.06;;;17.93;83.99
14253;BME280;7210;51.502;10.722;2022-10-16T09:48:58;99606.47;;;18.02;83.68
14253;BME280;7210;51.502;10.722;2022-10-16T09:51:29;99619.81;;;18.07;83.58
14253;BME280;7210;51.502;10.722;2022-10-16T09:54:01;99616.06;;;18.08;83.66
14253;BME280;7210;51.502;10.722;2022-10-16T09:56:31;99617.13;;;18.17;82.66
14253;BME280;7210;51.502;10.722;2022-10-16T09:59:01;99610.69;;;18.18;81.93
14253;BME280;7210;51.502;10.722;2022-10-16T10:01:37;99603.72;;;18.17;81.76
14253;BME280;7210;51.502;10.722;2022-10-16T10:04:07;99603.66;;;18.27;81.32
14253;BME280;7210;51.502;10.722;2022-10-16T10:06:37;99606.94;;;18.68;81.11
14253;BME280;7210;51.502;10.722;2022-10-16T10:09:18;99620.50;;;18.81;80.88
14253;BME280;7210;51.502;10.722;2022-10-16T10:11:52;99607.13;;;18.76;80.11
14253;BME280;7210;51.502;10.722;2022-10-16T10:14:31;99613.94;;;18.97;79.30
14253;BME280;7210;51.502;10.722;2022-10-16T10:17:16;99615.91;;;19.15;78.67
14253;BME280;7210;51.502;10.722;2022-10-16T10:19:52;99607.94;;;19.10;78.49
14253;BME280;7210;51.502;10.722;2022-10-16T10:22:26;99619.53;;;19.01;78.15
14253;BME280;7210;51.502;10.722;2022-10-16T10:24:59;99626.25;;;18.98;79.42
14253;BME280;7210;51.502;10.722;2022-10-16T10:27:39;99624.16;;;18.95;78.66
14253;BME280;7210;51.502;10.722;2022-10-16T10:30:21;99637.22;;;19.02;78.84
14253;BME280;7210;51.502;10.722;2022-10-16T10:33:13;99634.69;;;19.20;77.97
14253;BME280;7210;51.502;10.722;2022-10-16T10:35:50;99629.94;;;19.07;77.77
14253;BME280;7210;51.502;10.722;2022-10-16T10:38:41;99634.28;;;19.03;76.22
14253;BME280;7210;51.502;10.722;2022-10-16T10:41:57;99637.44;;;19.10;76.82
14253;BME280;7210;51.502;10.722;2022-10-16T10:44:54;99632.09;;;19.05;76.12
14253;BME280;7210;51.502;10.722;2022-10-16T10:47:35;99616.38;;;18.94;76.02
14253;BME280;7210;51.502;10.722;2022-10-16T10:50:19;99623.28;;;19.33;75.46
14253;BME280;7210;51.502;10.722;2022-10-16T10:53:00;99633.09;;;19.48;74.69
14253;BME280;7210;51.502;10.722;2022-10-16T10:55:39;99626.38;;;19.50;74.30
14253;BME280;7210;51.502;10.722;2022-10-16T10:58:50;99626.75;;;19.62;73.26
14253;BME280;7210;51.502;10.722;2022-10-16T11:01:31;99638.63;;;19.56;70.98
14253;BME280;7210;51.502;10.722;2022-10-16T11:04:39;99633.34;;;19.46;71.24
14253;BME280;7210;51.502;10.722;2022-10-16T11:07:19;99622.25;;;19.29;72.60
14253;BME280;7210;51.502;10.722;2022-10-16T11:09:53;99635.19;;;19.22;72.88
14253;BME280;7210;51.502;10.722;2022-10-16T11:12:29;99637.94;;;19.12;73.09
14253;BME280;7210;51.502;10.722;2022-10-16T11:15:07;99632.06;;;19.10;72.70
14253;BME280;7210;51.502;10.722;2022-10-16T11:17:42;99623.97;;;19.20;73.01
14253;BME280;7210;51.502;10.722;2022-10-16T11:20:18;99620.47;;;19.48;72.31
14253;BME280;7210;51.502;10.722;2022-10-16T11:22:54;99623.59;;;19.55;70.93
14253;BME280;7210;51.502;10.722;2022-10-16T11:25:27;99621.75;;;19.55;70.21
14253;BME280;7210;51.502;10.722;2022-10-16T11:28:02;99627.50;;;19.67;70.69
14253;BME280;7210;51.502;10.722;2022-10-16T11:30:41;99627.00;;;19.65;69.32
14253;BME280;7210;51.502;10.722;2022-10-16T11:33:29;99621.00;;;19.50;69.58
14253;BME280;7210;51.502;10.722;2022-10-16T11:36:12;99628.66;;;19.33;69.41
14253;BME280;7210;51.502;10.722;2022-10-16T11:38:53;99625.38;;;19.41;67.00
14253;BME280;7210;51.502;10.722;2022-10-16T11:41:29;99627.69;;;19.52;67.77
14253;BME280;7210;51.502;10.722;2022-10-16T11:44:19;99621.84;;;19.69;65.65
14253;BME280;7210;51.502;10.722;2022-10-16T11:46:59;99621.50;;;19.75;65.82
14253;BME280;7210;51.502;10.722;2022-10-16T11:49:33;99623.22;;;19.90;65.54
14253;BME280;7210;51.502;10.722;2022-10-16T11:52:11;99620.41;;;20.00;64.40
14253;BME280;7210;51.502;10.722;2022-10-16T11:54:51;99631.13;;;20.05;64.13
14253;BME280;7210;51.502;10.722;2022-10-16T11:57:26;99617.34;;;20.11;64.63
14253;BME280;7210;51.502;10.722;2022-10-16T12:00:00;99626.22;;;20.12;64.75
14253;BME280;7210;51.502;10.722;2022-10-16T12:02:52;99626.22;;;20.12;64.84
14253;BME280;7210;51.502;10.722;2022-10-16T12:05:32;99628.81;;;20.17;64.81
14253;BME280;7210;51.502;10.722;2022-10-16T12:08:10;99622.03;;;20.24;63.75
14253;BME280;7210;51.502;10.722;2022-10-16T12:10:42;99616.47;;;20.39;62.92
14253;BME280;7210;51.502;10.722;2022-10-16T12:13:29;99616.28;;;20.31;62.67
14253;BME280;7210;51.502;10.722;2022-10-16T12:16:23;99617.81;;;20.37;63.04
14253;BME280;7210;51.502;10.722;2022-10-16T12:19:10;99617.81;;;20.37;61.70
14253;BME280;7210;51.502;10.722;2022-10-16T12:21:38;99617.47;;;20.43;62.43
14253;BME280;7210;51.502;10.722;2022-10-16T12:24:21;99605.84;;;20.48;61.81
14253;BME280;7210;51.502;10.722;2022-10-16T12:26:52;99618.19;;;20.49;62.07
14253;BME280;7210;51.502;10.722;2022-10-16T12:29:32;99623.50;;;20.54;61.93
14253;BME280;7210;51.502;10.722;2022-10-16T12:32:00;99609.28;;;20.53;61.41
14253;BME280;7210;51.502;10.722;2022-10-16T12:34:37;99614.13;;;20.51;61.44
14253;BME280;7210;51.502;10.722;2022-10-16T12:37:13;99623.00;;;20.52;61.22
14253;BME280;7210;51.502;10.722;2022-10-16T12:39:42;99624.09;;;20.51;62.98
14253;BME280;7210;51.502;10.722;2022-10-16T12:42:34;99635.72;;;20.65;62.10
14253;BME280;7210;51.502;10.722;2022-10-16T12:45:22;99626.91;;;20.78;61.75
14253;BME280;7210;51.502;10.722;2022-10-16T12:47:53;99630.19;;;20.75;61.66
14253;BME280;7210;51.502;10.722;2022-10-16T12:50:30;99634.53;;;20.71;61.66
14253;BME280;7210;51.502;10.722;2022-10-16T12:52:59;99626.56;;;20.66;61.46
14253;BME280;7210;51.502;10.722;2022-10-16T12:55:33;99630.63;;;20.63;62.47
14253;BME280;7210;51.502;10.722;2022-10-16T12:58:24;99620.75;;;20.59;61.76
14253;BME280;7210;51.502;10.722;2022-10-16T13:01:02;99622.91;;;20.57;61.85
14253;BME280;7210;51.502;10.722;2022-10-16T13:04:04;99630.47;;;20.55;61.61
14253;BME280;7210;51.502;10.722;2022-10-16T13:06:45;99638.03;;;20.53;61.70
14253;BME280;7210;51.502;10.722;2022-10-16T13:09:30;99642.50;;;20.39;61.31
14253;BME280;7210;51.502;10.722;2022-10-16T13:12:20;99645.38;;;20.24;62.21
14253;BME280;7210;51.502;10.722;2022-10-16T13:15:21;99650.97;;;20.27;62.06
14253;BME280;7210;51.502;10.722;2022-10-16T13:18:02;99653.41;;;20.29;61.26
14253;BME280;7210;51.502;10.722;2022-10-16T13:20:56;99649.16;;;20.23;61.79
14253;BME280;7210;51.502;10.722;2022-10-16T13:23:36;99651.25;;;20.26;61.74